createdAt,value
2023-03-06T00:00:21.855Z,28.20
2023-03-06T00:01:21.861Z,25.90
2023-03-06T00:02:21.807Z,29.50
2023-03-06T00:03:21.867Z,27.80
2023-03-06T00:04:21.899Z,35.40
2023-03-06T00:05:21.791Z,29.70
2023-03-06T00:06:21.768Z,26.60
2023-03-06T00:07:21.748Z,31.70
2023-03-06T00:08:21.739Z,26.60
2023-03-06T00:09:21.743Z,29.00
2023-03-06T00:10:21.740Z,27.10
2023-03-06T00:11:21.710Z,35.40
2023-03-06T00:12:21.699Z,25.30
2023-03-06T00:13:21.703Z,30.40
2023-03-06T00:14:21.685Z,30.50
2023-03-06T00:15:21.689Z,28.70
2023-03-06T00:16:21.756Z,33.10
2023-03-06T00:17:21.650Z,29.80
2023-03-06T00:18:21.665Z,29.00
2023-03-06T00:19:21.642Z,27.70
2023-03-06T00:20:21.659Z,28.10
2023-03-06T00:21:21.614Z,30.60
2023-03-06T00:22:21.623Z,29.70
2023-03-06T00:23:21.601Z,32.40
2023-03-06T00:24:21.589Z,31.30
2023-03-06T00:25:21.588Z,29.70
2023-03-06T00:26:21.571Z,28.10
2023-03-06T00:27:21.544Z,36.10
2023-03-06T00:28:21.554Z,31.40
2023-03-06T00:29:21.537Z,30.40
2023-03-06T00:30:21.537Z,30.60
2023-03-06T00:31:21.525Z,33.70
2023-03-06T00:32:21.536Z,31.60
2023-03-06T00:33:21.492Z,31.50
2023-03-06T00:34:21.500Z,52.30
2023-03-06T00:35:21.526Z,84.90
2023-03-06T00:36:21.467Z,64.80
2023-03-06T00:37:21.457Z,95.70
2023-03-06T00:38:21.425Z,77.90
2023-03-06T00:39:21.445Z,46.80
2023-03-06T00:40:21.428Z,51.90
2023-03-06T00:41:21.413Z,80.30
2023-03-06T00:42:21.413Z,63.40
2023-03-06T00:43:21.389Z,37.90
2023-03-06T00:44:21.368Z,44.10
2023-03-06T00:45:21.390Z,43.00
2023-03-06T00:46:21.374Z,33.50
2023-03-06T00:47:21.338Z,31.90
2023-03-06T00:48:21.331Z,33.50
2023-03-06T00:49:21.318Z,32.50
2023-03-06T00:50:21.332Z,37.60
2023-03-06T00:51:21.295Z,34.40
2023-03-06T00:52:21.294Z,31.40
2023-03-06T00:53:21.269Z,34.40
2023-03-06T00:54:21.285Z,31.70
2023-03-06T00:55:21.264Z,30.10
2023-03-06T00:56:21.265Z,34.00
2023-03-06T00:57:21.242Z,34.20
2023-03-06T00:58:21.220Z,30.60
2023-03-06T00:59:21.210Z,35.30
2023-03-06T01:00:21.229Z,35.40
2023-03-06T01:01:21.287Z,35.00
2023-03-06T01:02:21.197Z,36.90
2023-03-06T01:03:21.170Z,36.50
2023-03-06T01:04:21.160Z,30.70
2023-03-06T01:05:21.149Z,35.80
2023-03-06T01:06:21.181Z,35.00
2023-03-06T01:07:21.133Z,40.80
2023-03-06T01:08:21.119Z,31.30
2023-03-06T01:09:21.121Z,34.20
2023-03-06T01:10:21.108Z,36.90
2023-03-06T01:11:21.109Z,30.00
2023-03-06T01:12:23.382Z,32.80
2023-03-06T01:13:21.078Z,34.90
2023-03-06T01:14:21.061Z,32.80
2023-03-06T01:15:21.055Z,37.10
2023-03-06T01:16:21.108Z,36.70
2023-03-06T01:17:21.021Z,36.00
2023-03-06T01:18:21.018Z,37.60
2023-03-06T01:19:21.009Z,34.00
2023-03-06T01:20:20.994Z,39.00
2023-03-06T01:21:21.000Z,37.60
2023-03-06T01:22:20.971Z,31.30
2023-03-06T01:23:20.973Z,37.40
2023-03-06T01:24:20.952Z,35.60
2023-03-06T01:25:20.940Z,33.30
2023-03-06T01:26:20.951Z,31.90
2023-03-06T01:27:20.918Z,33.20
2023-03-06T01:28:20.912Z,34.60
2023-03-06T01:29:20.901Z,38.00
2023-03-06T01:30:20.895Z,35.40
2023-03-06T01:31:20.923Z,31.50
2023-03-06T01:32:20.883Z,35.40
2023-03-06T01:33:20.864Z,33.30
2023-03-06T01:34:20.843Z,39.90
2023-03-06T01:35:20.926Z,43.50
2023-03-06T01:36:20.851Z,39.60
2023-03-06T01:37:20.814Z,32.70
2023-03-06T01:38:20.816Z,40.70
2023-03-06T01:39:20.795Z,36.30
2023-03-06T01:40:20.793Z,39.70
2023-03-06T01:41:20.794Z,36.00
2023-03-06T01:42:20.766Z,40.00
2023-03-06T01:43:20.760Z,39.40
2023-03-06T01:44:20.763Z,41.30
2023-03-06T01:45:20.739Z,41.70
2023-03-06T01:46:20.752Z,42.10
2023-03-06T01:47:20.720Z,43.50
2023-03-06T01:48:20.722Z,43.30
2023-03-06T01:49:20.698Z,38.20
2023-03-06T01:50:20.692Z,44.20
2023-03-06T01:51:20.693Z,42.80
2023-03-06T01:52:20.665Z,46.10
2023-03-06T01:53:20.654Z,41.70
2023-03-06T01:54:20.745Z,40.50
2023-03-06T01:55:20.636Z,42.50
2023-03-06T01:56:20.650Z,40.40
2023-03-06T01:57:20.616Z,41.70
2023-03-06T01:58:20.616Z,41.30
2023-03-06T01:59:20.594Z,47.40
2023-03-06T02:00:20.591Z,43.80
2023-03-06T02:01:20.628Z,39.80
2023-03-06T02:02:20.641Z,40.80
2023-03-06T02:03:20.566Z,46.40
2023-03-06T02:04:20.550Z,47.30
2023-03-06T02:05:20.544Z,38.20
2023-03-06T02:06:20.548Z,43.20
2023-03-06T02:07:20.508Z,43.30
2023-03-06T02:08:20.508Z,46.20
2023-03-06T02:09:20.509Z,44.90
2023-03-06T02:10:20.481Z,42.40
2023-03-06T02:11:20.527Z,43.20
2023-03-06T02:12:20.471Z,47.70
2023-03-06T02:13:20.463Z,45.00
2023-03-06T02:14:20.440Z,39.50
2023-03-06T02:15:20.441Z,42.70
2023-03-06T02:16:20.517Z,44.00
2023-03-06T02:17:20.416Z,48.00
2023-03-06T02:18:20.406Z,51.50
2023-03-06T02:19:20.394Z,47.40
2023-03-06T02:20:20.381Z,41.30
2023-03-06T02:21:20.415Z,47.10
2023-03-06T02:22:20.354Z,39.90
2023-03-06T02:23:20.353Z,44.70
2023-03-06T02:24:20.365Z,47.00
2023-03-06T02:25:20.334Z,43.20
2023-03-06T02:26:20.340Z,48.30
2023-03-06T02:27:20.331Z,45.90
2023-03-06T02:28:20.316Z,41.40
2023-03-06T02:29:20.292Z,44.50
2023-03-06T02:30:20.283Z,48.70
2023-03-06T02:31:20.326Z,44.00
2023-03-06T02:32:20.298Z,48.20
2023-03-06T02:33:20.259Z,46.60
2023-03-06T02:34:20.241Z,46.00
2023-03-06T02:35:20.229Z,50.80
2023-03-06T02:36:20.229Z,45.30
2023-03-06T02:37:20.209Z,51.10
2023-03-06T02:38:20.202Z,45.70
2023-03-06T02:39:20.199Z,42.90
2023-03-06T02:40:20.183Z,48.00
2023-03-06T02:41:20.189Z,49.10
2023-03-06T02:42:20.152Z,49.60
2023-03-06T02:43:20.150Z,47.40
2023-03-06T02:44:20.130Z,51.50
2023-03-06T02:45:20.133Z,54.30
2023-03-06T02:46:20.330Z,54.90
2023-03-06T02:47:20.099Z,47.80
2023-03-06T02:48:20.090Z,48.50
2023-03-06T02:49:20.088Z,51.50
2023-03-06T02:50:20.067Z,51.40
2023-03-06T02:51:20.085Z,52.90
2023-03-06T02:52:20.059Z,54.20
2023-03-06T02:53:20.063Z,53.00
2023-03-06T02:54:20.024Z,54.60
2023-03-06T02:55:20.018Z,53.90
2023-03-06T02:56:20.019Z,52.20
2023-03-06T02:57:20.002Z,55.60
2023-03-06T02:58:19.991Z,47.30
2023-03-06T02:59:19.969Z,52.50
2023-03-06T03:00:19.967Z,55.60
2023-03-06T03:01:20.067Z,53.70
2023-03-06T03:02:19.942Z,50.10
2023-03-06T03:03:19.939Z,55.30
2023-03-06T03:04:19.970Z,61.00
2023-03-06T03:05:19.924Z,56.40
2023-03-06T03:06:19.912Z,59.60
2023-03-06T03:07:19.899Z,50.90
2023-03-06T03:08:19.884Z,52.40
2023-03-06T03:09:19.870Z,53.20
2023-03-06T03:10:19.852Z,50.90
2023-03-06T03:11:19.875Z,50.90
2023-03-06T03:12:19.831Z,64.20
2023-03-06T03:13:19.831Z,63.10
2023-03-06T03:14:19.810Z,54.10
2023-03-06T03:15:19.809Z,62.30
2023-03-06T03:16:19.856Z,62.00
2023-03-06T03:17:19.781Z,54.40
2023-03-06T03:18:19.781Z,61.00
2023-03-06T03:19:19.772Z,56.20
2023-03-06T03:20:19.753Z,57.00
2023-03-06T03:21:19.769Z,57.30
2023-03-06T03:22:19.745Z,55.80
2023-03-06T03:23:19.726Z,61.50
2023-03-06T03:24:19.725Z,58.30
2023-03-06T03:25:19.721Z,58.40
2023-03-06T03:26:19.719Z,59.00
2023-03-06T03:27:19.700Z,59.70
2023-03-06T03:28:19.678Z,60.90
2023-03-06T03:29:19.673Z,60.20
2023-03-06T03:30:19.652Z,57.60
2023-03-06T03:31:19.732Z,55.00
2023-03-06T03:32:19.650Z,55.10
2023-03-06T03:33:19.632Z,61.90
2023-03-06T03:34:19.620Z,55.50
2023-03-06T03:35:19.665Z,58.60
2023-03-06T03:36:19.611Z,62.70
2023-03-06T03:37:19.583Z,55.20
2023-03-06T03:38:19.580Z,59.00
2023-03-06T03:39:19.563Z,60.90
2023-03-06T03:40:19.553Z,61.50
2023-03-06T03:41:19.564Z,55.00
2023-03-06T03:42:19.524Z,56.90
2023-03-06T03:43:19.523Z,60.30
2023-03-06T03:44:19.510Z,59.90
2023-03-06T03:45:19.504Z,59.00
2023-03-06T03:46:19.513Z,60.20
2023-03-06T03:47:19.490Z,59.10
2023-03-06T03:48:19.468Z,60.30
2023-03-06T03:49:19.468Z,60.00
2023-03-06T03:50:19.452Z,61.60
2023-03-06T03:51:19.456Z,66.90
2023-03-06T03:52:19.483Z,61.60
2023-03-06T03:53:19.421Z,60.80
2023-03-06T03:54:19.408Z,60.30
2023-03-06T03:55:19.426Z,60.50
2023-03-06T03:56:19.405Z,59.90
2023-03-06T03:57:19.381Z,63.50
2023-03-06T03:58:19.368Z,61.20
2023-03-06T03:59:19.368Z,61.20
2023-03-06T04:00:19.349Z,65.20
2023-03-06T04:01:19.358Z,64.40
2023-03-06T04:02:19.393Z,65.50
2023-03-06T04:03:19.319Z,68.60
2023-03-06T04:04:19.307Z,63.80
2023-03-06T04:05:19.313Z,61.00
2023-03-06T04:06:19.278Z,61.20
2023-03-06T04:07:19.296Z,65.20
2023-03-06T04:08:19.267Z,59.10
2023-03-06T04:09:19.257Z,64.30
2023-03-06T04:10:19.238Z,64.20
2023-03-06T04:11:19.233Z,63.70
2023-03-06T04:12:19.240Z,61.50
2023-03-06T04:13:19.221Z,60.60
2023-03-06T04:14:19.210Z,71.80
2023-03-06T04:15:19.188Z,70.80
2023-03-06T04:16:19.187Z,66.80
2023-03-06T04:17:19.195Z,63.90
2023-03-06T04:18:19.151Z,65.00
2023-03-06T04:19:19.160Z,60.20
2023-03-06T04:20:19.138Z,65.60
2023-03-06T04:21:19.132Z,68.10
2023-03-06T04:22:19.135Z,66.90
2023-03-06T04:23:19.124Z,66.60
2023-03-06T04:24:19.094Z,63.00
2023-03-06T04:25:19.084Z,65.30
2023-03-06T04:26:19.090Z,63.10
2023-03-06T04:27:19.083Z,64.90
2023-03-06T04:28:19.072Z,70.70
2023-03-06T04:29:19.047Z,64.90
2023-03-06T04:30:19.033Z,65.20
2023-03-06T04:31:19.072Z,67.00
2023-03-06T04:32:21.360Z,66.20
2023-03-06T04:33:19.009Z,65.70
2023-03-06T04:34:18.996Z,64.90
2023-03-06T04:35:19.068Z,70.20
2023-03-06T04:36:18.976Z,70.20
2023-03-06T04:37:18.991Z,69.80
2023-03-06T04:38:18.959Z,61.20
2023-03-06T04:39:18.947Z,64.30
2023-03-06T04:40:18.938Z,73.00
2023-03-06T04:41:18.937Z,68.70
2023-03-06T04:42:18.932Z,66.20
2023-03-06T04:43:18.917Z,72.00
2023-03-06T04:44:18.891Z,67.60
2023-03-06T04:45:18.880Z,65.10
2023-03-06T04:46:18.880Z,70.10
2023-03-06T04:47:19.414Z,73.80
2023-03-06T04:48:18.852Z,68.80
2023-03-06T04:49:18.847Z,68.70
2023-03-06T04:50:18.833Z,65.90
2023-03-06T04:51:18.819Z,66.60
2023-03-06T04:52:18.825Z,68.90
2023-03-06T04:53:18.846Z,71.60
2023-03-06T04:54:19.158Z,73.70
2023-03-06T04:55:18.792Z,69.70
2023-03-06T04:56:18.776Z,72.90
2023-03-06T04:57:18.774Z,66.70
2023-03-06T04:58:18.760Z,65.40
2023-03-06T04:59:18.745Z,66.20
2023-03-06T05:00:18.726Z,68.10
2023-03-06T05:01:18.833Z,69.20
2023-03-06T05:02:18.758Z,70.70
2023-03-06T05:03:18.713Z,70.40
2023-03-06T05:04:18.702Z,65.60
2023-03-06T05:05:18.692Z,67.70
2023-03-06T05:06:18.664Z,73.40
2023-03-06T05:07:18.671Z,70.20
2023-03-06T05:08:18.635Z,66.50
2023-03-06T05:09:18.634Z,71.00
2023-03-06T05:10:18.622Z,71.30
2023-03-06T05:11:18.613Z,75.10
2023-03-06T05:12:18.633Z,72.20
2023-03-06T05:13:18.593Z,65.50
2023-03-06T05:14:18.577Z,67.50
2023-03-06T05:15:18.571Z,68.80
2023-03-06T05:16:18.584Z,64.30
2023-03-06T05:17:18.578Z,71.10
2023-03-06T05:18:18.540Z,74.40
2023-03-06T05:19:18.543Z,71.50
2023-03-06T05:20:18.517Z,70.40
2023-03-06T05:21:18.505Z,72.90
2023-03-06T05:22:18.514Z,75.00
2023-03-06T05:23:18.487Z,73.80
2023-03-06T05:24:18.473Z,65.90
2023-03-06T05:25:18.465Z,70.70
2023-03-06T05:26:18.455Z,79.00
2023-03-06T05:27:18.462Z,70.20
2023-03-06T05:28:18.443Z,72.40
2023-03-06T05:29:18.428Z,76.70
2023-03-06T05:30:18.424Z,74.20
2023-03-06T05:31:18.452Z,75.00
2023-03-06T05:32:18.472Z,71.30
2023-03-06T05:33:18.394Z,74.40
2023-03-06T05:34:18.368Z,74.10
2023-03-06T05:35:18.502Z,72.70
2023-03-06T05:36:18.351Z,75.60
2023-03-06T05:37:19.321Z,76.30
2023-03-06T05:38:18.341Z,75.30
2023-03-06T05:39:18.377Z,77.40
2023-03-06T05:40:18.322Z,78.90
2023-03-06T05:41:18.317Z,74.40
2023-03-06T05:42:18.356Z,73.10
2023-03-06T05:43:18.295Z,72.00
2023-03-06T05:44:18.269Z,67.80
2023-03-06T05:45:18.289Z,69.80
2023-03-06T05:46:18.345Z,76.30
2023-03-06T05:47:18.276Z,73.00
2023-03-06T05:48:18.229Z,73.90
2023-03-06T05:49:18.178Z,70.30
2023-03-06T05:50:18.184Z,77.50
2023-03-06T05:51:18.278Z,76.80
2023-03-06T05:52:18.222Z,72.30
2023-03-06T05:53:18.205Z,70.10
2023-03-06T05:54:18.189Z,72.60
2023-03-06T05:55:18.180Z,75.10
2023-03-06T05:56:18.151Z,70.90
2023-03-06T05:57:18.119Z,70.60
2023-03-06T05:58:18.086Z,75.10
2023-03-06T05:59:18.122Z,76.50
2023-03-06T06:00:18.059Z,72.80
2023-03-06T06:01:19.282Z,73.40
2023-03-06T06:02:18.218Z,76.30
2023-03-06T06:03:18.294Z,71.50
2023-03-06T06:04:18.022Z,74.40
2023-03-06T06:05:17.998Z,71.90
2023-03-06T06:06:18.010Z,68.80
2023-03-06T06:07:18.888Z,76.40
2023-03-06T06:08:17.977Z,93.30
2023-03-06T06:09:17.968Z,75.10
2023-03-06T06:10:17.952Z,67.30
2023-03-06T06:11:17.940Z,74.30
2023-03-06T06:12:17.941Z,72.00
2023-03-06T06:13:17.924Z,81.00
2023-03-06T06:14:17.908Z,76.90
2023-03-06T06:15:17.901Z,80.60
2023-03-06T06:16:17.928Z,84.90
2023-03-06T06:17:17.912Z,80.10
2023-03-06T06:18:17.871Z,79.80
2023-03-06T06:19:17.852Z,85.10
2023-03-06T06:20:17.842Z,87.20
2023-03-06T06:21:17.863Z,81.50
2023-03-06T06:22:17.857Z,81.20
2023-03-06T06:23:17.813Z,85.90
2023-03-06T06:24:17.816Z,93.10
2023-03-06T06:25:17.793Z,90.30
2023-03-06T06:26:17.794Z,88.10
2023-03-06T06:27:17.802Z,94.70
2023-03-06T06:28:17.774Z,78.70
2023-03-06T06:29:17.746Z,80.20
2023-03-06T06:30:17.743Z,82.10
2023-03-06T06:31:17.753Z,80.70
2023-03-06T06:32:17.783Z,79.70
2023-03-06T06:33:17.706Z,80.10
2023-03-06T06:34:17.705Z,79.90
2023-03-06T06:35:17.689Z,71.10
2023-03-06T06:36:17.692Z,80.70
2023-03-06T06:37:17.690Z,78.70
2023-03-06T06:38:17.671Z,71.50
2023-03-06T06:39:17.647Z,81.50
2023-03-06T06:40:17.641Z,77.10
2023-03-06T06:42:31.580Z,80.90
2023-03-06T06:43:18.608Z,70.20
2023-03-06T06:44:17.598Z,72.80
2023-03-06T06:45:17.587Z,83.50
2023-03-06T06:46:53.340Z,77.70
2023-03-06T06:47:23.063Z,74.90
2023-03-06T06:48:18.612Z,75.90
2023-03-06T06:49:17.542Z,79.80
2023-03-06T06:50:17.539Z,79.70
2023-03-06T06:51:17.531Z,78.10
2023-03-06T06:52:17.551Z,67.50
2023-03-06T06:53:17.502Z,78.20
2023-03-06T06:54:17.529Z,77.50
2023-03-06T06:55:17.485Z,80.10
2023-03-06T06:56:17.473Z,75.10
2023-03-06T06:57:17.487Z,70.50
2023-03-06T06:58:17.453Z,73.10
2023-03-06T06:59:17.710Z,78.80
2023-03-06T07:00:17.436Z,77.80
2023-03-06T07:01:17.434Z,83.10
2023-03-06T07:02:17.464Z,78.20
2023-03-06T07:03:17.404Z,82.00
2023-03-06T07:04:17.432Z,73.80
2023-03-06T07:05:17.415Z,77.30
2023-03-06T07:06:17.375Z,76.50
2023-03-06T07:07:17.363Z,82.00
2023-03-06T07:08:17.366Z,67.70
2023-03-06T07:09:17.336Z,77.60
2023-03-06T07:10:18.904Z,72.60
2023-03-06T07:11:17.336Z,78.70
2023-03-06T07:12:17.317Z,87.80
2023-03-06T07:13:17.322Z,76.30
2023-03-06T07:14:17.288Z,73.80
2023-03-06T07:15:17.280Z,75.20
2023-03-06T07:16:17.309Z,83.30
2023-03-06T07:17:17.262Z,79.70
2023-03-06T07:18:17.273Z,83.00
2023-03-06T07:19:17.231Z,85.10
2023-03-06T07:20:17.232Z,84.80
2023-03-06T07:21:17.221Z,81.90
2023-03-06T07:22:17.208Z,80.80
2023-03-06T07:23:17.209Z,79.40
2023-03-06T07:24:17.191Z,73.20
2023-03-06T07:25:17.196Z,70.40
2023-03-06T07:26:17.160Z,75.50
2023-03-06T07:27:17.152Z,72.80
2023-03-06T07:28:18.674Z,76.80
2023-03-06T07:29:17.131Z,76.40
2023-03-06T07:30:17.132Z,70.90
2023-03-06T07:31:17.129Z,80.10
2023-03-06T07:32:17.136Z,78.80
2023-03-06T07:33:17.113Z,74.50
2023-03-06T07:34:17.083Z,75.90
2023-03-06T07:35:20.312Z,79.00
2023-03-06T07:36:17.078Z,75.80
2023-03-06T07:37:17.054Z,75.70
2023-03-06T07:38:17.066Z,75.60
2023-03-06T07:39:17.025Z,73.10
2023-03-06T07:40:17.027Z,78.70
2023-03-06T07:41:17.021Z,74.40
2023-03-06T07:42:17.008Z,78.80
2023-03-06T07:43:19.585Z,75.00
2023-03-06T07:44:16.996Z,72.60
2023-03-06T07:45:16.974Z,68.60
2023-03-06T07:46:17.003Z,69.00
2023-03-06T07:47:16.951Z,69.80
2023-03-06T07:48:16.965Z,66.80
2023-03-06T07:49:16.940Z,72.60
2023-03-06T07:50:16.923Z,78.60
2023-03-06T07:51:16.914Z,80.30
2023-03-06T07:52:16.906Z,80.50
2023-03-06T07:53:16.913Z,74.40
2023-03-06T07:54:16.885Z,78.00
2023-03-06T07:55:16.864Z,73.40
2023-03-06T07:56:16.868Z,75.90
2023-03-06T07:57:16.855Z,71.10
2023-03-06T07:58:16.856Z,69.20
2023-03-06T07:59:16.848Z,76.60
2023-03-06T08:00:16.826Z,75.60
2023-03-06T08:01:16.811Z,65.70
2023-03-06T08:02:16.806Z,67.70
2023-03-06T08:03:16.903Z,67.70
2023-03-06T08:04:16.822Z,72.80
2023-03-06T08:05:16.771Z,72.30
2023-03-06T08:06:16.791Z,68.40
2023-03-06T08:07:16.760Z,72.00
2023-03-06T08:08:16.763Z,67.20
2023-03-06T08:09:16.728Z,63.50
2023-03-06T08:10:16.726Z,63.70
2023-03-06T08:11:16.700Z,66.10
2023-03-06T08:12:16.809Z,68.10
2023-03-06T08:13:16.698Z,64.70
2023-03-06T08:14:16.678Z,66.70
2023-03-06T08:15:16.689Z,64.20
2023-03-06T08:16:16.693Z,64.20
2023-03-06T08:17:16.637Z,68.30
2023-03-06T08:18:16.647Z,66.90
2023-03-06T08:19:16.620Z,63.10
2023-03-06T08:20:16.607Z,59.40
2023-03-06T08:21:16.630Z,60.20
2023-03-06T08:22:16.588Z,59.40
2023-03-06T08:23:16.597Z,62.40
2023-03-06T08:24:16.614Z,56.80
2023-03-06T08:25:16.569Z,55.60
2023-03-06T08:26:16.551Z,62.30
2023-03-06T08:27:16.529Z,58.90
2023-03-06T08:28:16.549Z,56.60
2023-03-06T08:29:16.508Z,55.90
2023-03-06T08:30:16.504Z,53.30
2023-03-06T08:31:16.509Z,56.30
2023-03-06T08:32:16.529Z,54.20
2023-03-06T08:33:16.490Z,51.50
2023-03-06T08:34:16.492Z,54.60
2023-03-06T08:35:16.454Z,54.80
2023-03-06T08:36:16.441Z,55.70
2023-03-06T08:37:16.480Z,50.40
2023-03-06T08:38:16.448Z,53.20
2023-03-06T08:39:16.411Z,48.90
2023-03-06T08:40:16.402Z,49.30
2023-03-06T08:41:16.395Z,54.70
2023-03-06T08:42:16.383Z,47.70
2023-03-06T08:43:16.391Z,51.20
2023-03-06T08:44:16.366Z,49.20
2023-03-06T08:45:16.351Z,50.20
2023-03-06T08:46:16.342Z,48.70
2023-03-06T08:47:16.345Z,44.90
2023-03-06T08:48:16.340Z,46.30
2023-03-06T08:49:16.313Z,55.00
2023-03-06T08:50:16.293Z,54.40
2023-03-06T08:51:16.286Z,49.70
2023-03-06T08:52:16.333Z,44.80
2023-03-06T08:53:16.292Z,43.50
2023-03-06T08:54:16.258Z,51.50
2023-03-06T08:55:16.244Z,45.40
2023-03-06T08:56:16.238Z,46.50
2023-03-06T08:57:16.223Z,44.60
2023-03-06T08:58:16.244Z,45.00
2023-03-06T08:59:16.204Z,46.00
2023-03-06T09:00:16.235Z,52.30
2023-03-06T09:01:16.221Z,46.40
2023-03-06T09:02:16.207Z,41.10
2023-03-06T09:03:16.191Z,48.00
2023-03-06T09:04:16.146Z,39.10
2023-03-06T09:05:16.135Z,40.80
2023-03-06T09:06:16.146Z,43.40
2023-03-06T09:07:16.138Z,43.90
2023-03-06T09:08:16.137Z,37.90
2023-03-06T09:09:16.108Z,37.60
2023-03-06T09:10:16.170Z,37.30
2023-03-06T09:11:16.078Z,40.60
2023-03-06T09:12:16.067Z,43.80
2023-03-06T09:13:16.078Z,39.30
2023-03-06T09:14:16.051Z,38.80
2023-03-06T09:15:16.038Z,45.50
2023-03-06T09:16:16.032Z,41.70
2023-03-06T09:17:16.052Z,39.50
2023-03-06T09:18:16.030Z,35.90
2023-03-06T09:19:15.988Z,40.50
2023-03-06T09:20:15.987Z,37.70
2023-03-06T09:21:15.971Z,38.20
2023-03-06T09:22:15.985Z,39.50
2023-03-06T09:23:15.974Z,38.20
2023-03-06T09:24:15.944Z,35.50
2023-03-06T09:25:15.934Z,36.30
2023-03-06T09:26:15.934Z,37.70
2023-03-06T09:27:15.917Z,35.80
2023-03-06T09:28:15.928Z,35.10
2023-03-06T09:29:15.898Z,37.30
2023-03-06T09:30:15.895Z,38.40
2023-03-06T09:31:15.924Z,35.70
2023-03-06T09:32:15.924Z,34.30
2023-03-06T09:33:15.875Z,36.40
2023-03-06T09:34:15.849Z,31.30
2023-03-06T09:35:15.829Z,30.30
2023-03-06T09:36:15.821Z,34.80
2023-03-06T09:37:16.346Z,34.00
2023-03-06T09:38:15.822Z,32.70
2023-03-06T09:39:15.790Z,29.70
2023-03-06T09:40:15.783Z,32.00
2023-03-06T09:41:15.784Z,32.60
2023-03-06T09:42:15.762Z,28.30
2023-03-06T09:43:15.764Z,27.80
2023-03-06T09:44:15.758Z,30.60
2023-03-06T09:45:15.731Z,25.80
2023-03-06T09:46:15.770Z,27.80
2023-03-06T09:47:15.720Z,29.70
2023-03-06T09:48:15.730Z,29.60
2023-03-06T09:49:15.705Z,29.00
2023-03-06T09:50:15.696Z,25.90
2023-03-06T09:51:15.673Z,27.20
2023-03-06T09:52:15.716Z,22.50
2023-03-06T09:53:15.663Z,19.80
2023-03-06T09:54:15.685Z,20.90
2023-03-06T09:55:15.651Z,20.70
2023-03-06T09:56:15.635Z,22.50
2023-03-06T09:57:15.602Z,22.90
2023-03-06T09:58:15.604Z,21.70
2023-03-06T09:59:15.605Z,26.10
2023-03-06T10:00:15.572Z,21.70
2023-03-06T10:01:15.661Z,25.10
2023-03-06T10:02:16.701Z,24.10
2023-03-06T10:03:15.653Z,25.30
2023-03-06T10:04:15.553Z,21.50
2023-03-06T10:05:15.613Z,22.90
2023-03-06T10:06:15.519Z,22.50
2023-03-06T10:07:15.522Z,23.80
2023-03-06T10:08:15.505Z,23.30
2023-03-06T10:09:15.506Z,24.00
2023-03-06T10:10:15.495Z,22.40
2023-03-06T10:11:15.477Z,25.90
2023-03-06T10:12:15.470Z,20.90
2023-03-06T10:13:15.474Z,22.80
2023-03-06T10:14:15.461Z,20.20
2023-03-06T10:15:15.418Z,26.90
2023-03-06T10:16:15.480Z,21.00
2023-03-06T10:17:15.402Z,19.40
2023-03-06T10:18:15.399Z,19.00
2023-03-06T10:19:15.420Z,18.80
2023-03-06T10:20:15.377Z,23.40
2023-03-06T10:21:19.373Z,19.40
2023-03-06T10:22:15.351Z,19.40
2023-03-06T10:23:15.332Z,21.10
2023-03-06T10:24:15.344Z,20.00
2023-03-06T10:25:15.303Z,17.30
2023-03-06T10:26:15.332Z,17.10
2023-03-06T10:27:15.305Z,16.70
2023-03-06T10:28:15.314Z,18.00
2023-03-06T10:29:15.285Z,18.40
2023-03-06T10:30:15.256Z,17.40
2023-03-06T10:31:15.272Z,16.00
2023-03-06T10:32:15.281Z,17.50
2023-03-06T10:33:15.233Z,15.00
2023-03-06T10:34:15.246Z,20.00
2023-03-06T10:35:15.213Z,15.90
2023-03-06T10:36:15.300Z,14.70
2023-03-06T10:37:15.214Z,19.50
2023-03-06T10:38:15.179Z,20.20
2023-03-06T10:39:15.178Z,16.80
2023-03-06T10:40:15.155Z,20.30
2023-03-06T10:41:15.147Z,18.90
2023-03-06T10:42:15.149Z,18.30
2023-03-06T10:43:15.128Z,17.60
2023-03-06T10:44:15.130Z,17.10
2023-03-06T10:45:15.126Z,19.80
2023-03-06T10:46:15.201Z,20.90
2023-03-06T10:47:15.091Z,17.10
2023-03-06T10:48:15.079Z,17.50
2023-03-06T10:49:15.081Z,18.80
2023-03-06T10:50:15.054Z,21.90
2023-03-06T10:51:18.640Z,21.00
2023-03-06T10:52:15.038Z,18.00
2023-03-06T10:53:15.023Z,18.50
2023-03-06T10:54:15.026Z,21.90
2023-03-06T10:55:15.004Z,15.20
2023-03-06T10:56:14.982Z,22.90
2023-03-06T10:57:14.983Z,16.10
2023-03-06T10:58:14.964Z,19.80
2023-03-06T10:59:15.019Z,15.80
2023-03-06T11:00:14.991Z,19.80
2023-03-06T11:01:15.032Z,16.80
2023-03-06T11:02:14.926Z,19.00
2023-03-06T11:03:14.917Z,20.50
2023-03-06T11:04:14.920Z,20.00
2023-03-06T11:05:14.898Z,17.90
2023-03-06T11:06:14.916Z,18.40
2023-03-06T11:07:14.890Z,20.00
2023-03-06T11:08:14.904Z,16.50
2023-03-06T11:09:14.906Z,18.90
2023-03-06T11:10:14.840Z,18.40
2023-03-06T11:11:15.900Z,23.40
2023-03-06T11:12:14.817Z,22.70
2023-03-06T11:13:14.819Z,17.40
2023-03-06T11:14:14.817Z,17.30
2023-03-06T11:15:14.804Z,19.00
2023-03-06T11:16:14.827Z,15.00
2023-03-06T11:17:14.770Z,16.70
2023-03-06T11:18:14.757Z,19.10
2023-03-06T11:19:14.780Z,17.60
2023-03-06T11:20:14.776Z,17.80
2023-03-06T11:21:14.734Z,17.30
2023-03-06T11:22:14.724Z,18.10
2023-03-06T11:23:14.722Z,16.70
2023-03-06T11:24:14.726Z,16.90
2023-03-06T11:25:14.852Z,15.30
2023-03-06T11:26:14.672Z,17.80
2023-03-06T11:27:14.678Z,18.40
2023-03-06T11:28:14.668Z,19.50
2023-03-06T11:29:14.711Z,20.70
2023-03-06T11:30:14.629Z,22.50
2023-03-06T11:31:14.655Z,20.20
2023-03-06T11:32:14.641Z,17.40
2023-03-06T11:33:14.603Z,17.80
2023-03-06T11:34:14.603Z,20.00
2023-03-06T11:35:14.584Z,23.30
2023-03-06T11:36:14.579Z,15.90
2023-03-06T11:37:14.572Z,19.00
2023-03-06T11:38:14.570Z,16.70
2023-03-06T11:39:15.581Z,19.60
2023-03-06T11:40:14.521Z,17.40
2023-03-06T11:41:14.520Z,16.50
2023-03-06T11:42:14.503Z,19.70
2023-03-06T11:43:14.497Z,14.40
2023-03-06T11:44:14.503Z,15.10
2023-03-06T11:45:14.472Z,17.70
2023-03-06T11:46:14.472Z,19.40
2023-03-06T11:47:14.473Z,17.10
2023-03-06T11:48:14.445Z,15.20
2023-03-06T11:49:14.445Z,18.30
2023-03-06T11:50:14.424Z,16.40
2023-03-06T11:51:14.418Z,15.80
2023-03-06T11:52:14.395Z,19.90
2023-03-06T11:53:14.396Z,18.30
2023-03-06T11:54:14.397Z,17.90
2023-03-06T11:55:14.377Z,15.90
2023-03-06T11:56:14.364Z,20.70
2023-03-06T11:57:14.348Z,17.00
2023-03-06T11:58:14.342Z,18.70
2023-03-06T11:59:14.353Z,19.40
2023-03-06T12:00:14.334Z,15.90
2023-03-06T12:01:14.315Z,19.60
2023-03-06T12:02:14.357Z,17.70
2023-03-06T12:03:14.291Z,15.80
2023-03-06T12:04:14.310Z,14.90
2023-03-06T12:05:14.305Z,18.50
2023-03-06T12:06:14.257Z,17.30
2023-03-06T12:07:14.251Z,14.30
2023-03-06T12:08:14.236Z,13.70
2023-03-06T12:09:14.256Z,15.00
2023-03-06T12:10:14.220Z,13.90
2023-03-06T12:11:14.228Z,14.70
2023-03-06T12:12:14.221Z,16.00
2023-03-06T12:13:14.185Z,17.70
2023-03-06T12:14:14.202Z,14.50
2023-03-06T12:15:14.167Z,17.80
2023-03-06T12:16:14.168Z,15.50
2023-03-06T12:17:14.139Z,15.10
2023-03-06T12:18:14.134Z,17.10
2023-03-06T12:19:14.151Z,14.30
2023-03-06T12:20:14.106Z,12.70
2023-03-06T12:21:14.108Z,17.30
2023-03-06T12:22:14.087Z,18.70
2023-03-06T12:23:15.780Z,16.60
2023-03-06T12:24:14.087Z,15.10
2023-03-06T12:25:14.058Z,12.50
2023-03-06T12:26:14.048Z,11.50
2023-03-06T12:27:14.048Z,14.50
2023-03-06T12:28:14.037Z,11.70
2023-03-06T12:29:14.049Z,13.10
2023-03-06T12:30:14.023Z,13.00
2023-03-06T12:31:14.016Z,13.50
2023-03-06T12:32:14.114Z,14.80
2023-03-06T12:33:13.989Z,12.00
2023-03-06T12:34:13.967Z,14.70
2023-03-06T12:35:13.981Z,12.10
2023-03-06T12:36:13.950Z,18.60
2023-03-06T12:37:13.942Z,12.00
2023-03-06T12:38:13.942Z,16.60
2023-03-06T12:39:13.918Z,12.30
2023-03-06T12:40:13.925Z,15.20
2023-03-06T12:41:13.904Z,14.30
2023-03-06T12:42:22.657Z,13.60
2023-03-06T12:43:14.876Z,12.50
2023-03-06T12:44:13.863Z,16.60
2023-03-06T12:45:13.865Z,13.80
2023-03-06T12:46:13.906Z,15.60
2023-03-06T12:47:13.840Z,14.20
2023-03-06T12:48:13.814Z,13.30
2023-03-06T12:49:22.984Z,17.90
2023-03-06T12:50:14.830Z,14.20
2023-03-06T12:51:13.797Z,14.10
2023-03-06T12:52:16.048Z,13.70
2023-03-06T12:53:13.788Z,17.40